createdAt,value
2018-12-20T00:02:31.165Z,97934.76
2018-12-20T00:05:03.854Z,97937.29
2018-12-20T00:07:36.230Z,97935.78
2018-12-20T00:10:08.844Z,97941.09
2018-12-20T00:12:41.116Z,97935.25
2018-12-20T00:15:15.427Z,97932.85
2018-12-20T00:17:49.222Z,97933.48
2018-12-20T00:20:21.573Z,97940.36
2018-12-20T00:22:53.825Z,97941.73
2018-12-20T00:25:26.193Z,97938.06
2018-12-20T00:27:58.439Z,97936.17
2018-12-20T00:30:30.912Z,97946.93
2018-12-20T00:33:03.269Z,97942.61
2018-12-20T00:35:35.807Z,97946.16
2018-12-20T00:38:08.138Z,97950.20
2018-12-20T00:40:40.492Z,97941.09
2018-12-20T00:43:12.801Z,97943.63
2018-12-20T00:45:45.114Z,97947.42
2018-12-20T00:48:17.403Z,97947.95
2018-12-20T00:50:49.708Z,97949.95
2018-12-20T00:53:22.153Z,97955.02
2018-12-20T00:55:54.512Z,97956.42
2018-12-20T00:58:26.947Z,97955.98
2018-12-20T01:00:59.326Z,97958.56
2018-12-20T01:03:31.617Z,97956.91
2018-12-20T01:06:03.835Z,97959.70
2018-12-20T01:08:36.061Z,97967.42
2018-12-20T01:11:08.411Z,97969.97
2018-12-20T01:13:40.648Z,97968.95
2018-12-20T01:16:12.891Z,97973.52
2018-12-20T01:18:45.414Z,97977.80
2018-12-20T01:21:17.869Z,97977.03
2018-12-20T01:23:50.382Z,97980.58
2018-12-20T01:26:22.758Z,97987.55
2018-12-20T01:28:55.120Z,97987.69
2018-12-20T01:31:27.449Z,97978.44
2018-12-20T01:33:59.696Z,97984.91
2018-12-20T01:36:32.119Z,97981.74
2018-12-20T01:39:06.089Z,97982.09
2018-12-20T01:41:38.308Z,97985.65
2018-12-20T01:44:10.611Z,97988.17
2018-12-20T01:46:42.896Z,97987.41
2018-12-20T01:49:15.294Z,97997.14
2018-12-20T01:51:47.713Z,98000.80
2018-12-20T01:54:20.048Z,98005.72
2018-12-20T01:56:52.293Z,98000.16
2018-12-20T01:59:24.638Z,97998.02
2018-12-20T02:01:57.022Z,98002.84
2018-12-20T02:04:29.552Z,97998.16
2018-12-20T02:07:01.933Z,98005.52
2018-12-20T02:09:34.302Z,98003.86
2018-12-20T02:12:06.720Z,98004.88
2018-12-20T02:14:39.026Z,97997.81
2018-12-20T02:17:11.517Z,97993.48
2018-12-20T02:19:43.958Z,97988.67
2018-12-20T02:22:16.279Z,97989.94
2018-12-20T02:24:48.651Z,97993.24
2018-12-20T02:27:21.140Z,97989.30
2018-12-20T02:29:53.370Z,97988.17
2018-12-20T02:32:25.829Z,97985.26
2018-12-20T02:34:58.443Z,97984.73
2018-12-20T02:37:31.083Z,97990.47
2018-12-20T02:40:03.744Z,97993.24
2018-12-20T02:42:36.236Z,98003.86
2018-12-20T02:45:10.891Z,97994.02
2018-12-20T02:47:43.029Z,97984.66
2018-12-20T02:50:15.290Z,97987.20
2018-12-20T02:52:47.613Z,97985.54
2018-12-20T02:55:19.943Z,97990.00
2018-12-20T02:57:52.213Z,97985.92
2018-12-20T03:00:24.661Z,97990.00
2018-12-20T03:02:56.967Z,97992.91
2018-12-20T03:05:29.407Z,97993.79
2018-12-20T03:08:01.747Z,97997.84
2018-12-20T03:10:33.954Z,97998.86
2018-12-20T03:13:06.465Z,97996.08
2018-12-20T03:15:38.888Z,97992.66
2018-12-20T03:18:11.237Z,97995.05
2018-12-20T03:20:43.549Z,97995.04
2018-12-20T03:23:15.889Z,98000.11
2018-12-20T03:25:48.161Z,98001.38
2018-12-20T03:28:20.436Z,98001.75
2018-12-20T03:30:52.698Z,97994.55
2018-12-20T03:33:25.027Z,97999.87
2018-12-20T03:35:57.434Z,97992.53
2018-12-20T03:38:29.804Z,97992.28
2018-12-20T03:41:02.037Z,97994.42
2018-12-20T03:43:34.553Z,97989.22
2018-12-20T03:46:06.974Z,97987.22
2018-12-20T03:48:39.560Z,97992.53
2018-12-20T03:51:12.063Z,97989.23
2018-12-20T03:53:44.512Z,97988.84
2018-12-20T03:56:16.854Z,97994.05
2018-12-20T03:58:49.216Z,97989.48
2018-12-20T04:01:21.883Z,97994.18
2018-12-20T04:03:54.289Z,97985.95
2018-12-20T04:06:26.610Z,97986.45
2018-12-20T04:08:58.958Z,97985.69
2018-12-20T04:11:31.389Z,97991.27
2018-12-20T04:14:04.072Z,97984.65
2018-12-20T04:16:36.475Z,97996.05
2018-12-20T04:19:08.721Z,97991.60
2018-12-20T04:21:41.023Z,97994.75
2018-12-20T04:24:13.603Z,97999.19
2018-12-20T04:26:45.913Z,98000.56
2018-12-20T04:29:18.191Z,97999.83
2018-12-20T04:31:50.529Z,97997.54
2018-12-20T04:34:23.063Z,97996.53
2018-12-20T04:36:55.400Z,98001.71
2018-12-20T04:39:27.642Z,98008.05
2018-12-20T04:42:00.103Z,98012.47
2018-12-20T04:44:32.443Z,98012.48
2018-12-20T04:47:04.969Z,98021.59
2018-12-20T04:49:37.486Z,98025.66
2018-12-20T04:52:09.874Z,98028.03
2018-12-20T04:54:42.171Z,98021.30
2018-12-20T04:57:14.852Z,98016.87
2018-12-20T04:59:47.251Z,98018.53
2018-12-20T05:02:19.577Z,98020.94
2018-12-20T05:04:51.827Z,98027.50
2018-12-20T05:07:24.379Z,98030.66
2018-12-20T05:09:57.018Z,98042.16
2018-12-20T05:12:29.389Z,98043.30
2018-12-20T05:15:02.052Z,98050.89
2018-12-20T05:17:34.593Z,98054.12
2018-12-20T05:20:07.127Z,98051.86
2018-12-20T05:22:39.384Z,98052.24
2018-12-20T05:25:11.614Z,98048.34
2018-12-20T05:27:43.916Z,98052.14
2018-12-20T05:30:16.282Z,98046.38
2018-12-20T05:32:48.669Z,98055.98
2018-12-20T05:35:21.385Z,98048.16
2018-12-20T05:37:53.714Z,98050.66
2018-12-20T05:40:26.202Z,98055.50
2018-12-20T05:42:58.676Z,98054.22
2018-12-20T05:45:31.152Z,98057.63
2018-12-20T05:48:03.499Z,98056.75
2018-12-20T05:50:35.934Z,98059.26
2018-12-20T05:53:08.285Z,98056.09
2018-12-20T05:55:41.152Z,98064.80
2018-12-20T05:58:13.501Z,98061.16
2018-12-20T06:00:45.765Z,98069.65
2018-12-20T06:03:18.336Z,98063.56
2018-12-20T06:05:50.844Z,98070.89
2018-12-20T06:08:23.387Z,98073.68
2018-12-20T06:10:55.877Z,98084.94
2018-12-20T06:13:28.266Z,98068.36
2018-12-20T06:16:00.698Z,98069.91
2018-12-20T06:18:33.237Z,98082.05
2018-12-20T06:21:05.712Z,98078.30
2018-12-20T06:23:37.964Z,98085.09
2018-12-20T06:26:10.211Z,98080.70
2018-12-20T06:28:42.435Z,98086.11
2018-12-20T06:31:16.243Z,98088.86
2018-12-20T06:33:48.528Z,98086.95
2018-12-20T06:36:20.816Z,98085.40
2018-12-20T06:38:53.044Z,98089.70
2018-12-20T06:41:25.376Z,98083.28
2018-12-20T06:43:57.619Z,98095.47
2018-12-20T06:46:29.877Z,98093.61
2018-12-20T06:49:02.116Z,98103.48
2018-12-20T06:51:34.402Z,98105.66
2018-12-20T06:54:06.622Z,98104.63
2018-12-20T06:56:38.908Z,98096.95
2018-12-20T06:59:11.160Z,98100.05
2018-12-20T07:01:43.547Z,98112.48
2018-12-20T07:04:15.769Z,98101.52
2018-12-20T07:06:48.021Z,98099.83
2018-12-20T07:09:20.611Z,98102.01
2018-12-20T07:11:52.895Z,98107.59
2018-12-20T07:14:25.113Z,98104.53
2018-12-20T07:16:57.396Z,98096.80
2018-12-20T07:19:29.616Z,98107.80
2018-12-20T07:22:01.879Z,98109.61
2018-12-20T07:24:34.095Z,98111.90
2018-12-20T07:27:06.357Z,98116.11
2018-12-20T07:29:38.628Z,98116.23
2018-12-20T07:32:10.830Z,98109.89
2018-12-20T07:34:47.849Z,98118.37
2018-12-20T07:37:17.367Z,98114.34
2018-12-20T07:39:49.648Z,98120.05
2018-12-20T07:42:21.948Z,98121.81
2018-12-20T07:44:54.364Z,98122.83
2018-12-20T07:47:26.609Z,98125.15
2018-12-20T07:49:58.845Z,98135.92
2018-12-20T07:52:31.070Z,98128.91
2018-12-20T07:55:03.549Z,98123.10
2018-12-20T07:57:35.787Z,98129.17
2018-12-20T08:00:08.232Z,98136.28
2018-12-20T08:02:40.428Z,98130.05
2018-12-20T08:05:19.411Z,98131.98
2018-12-20T08:07:51.647Z,98139.83
2018-12-20T08:10:23.939Z,98132.38
2018-12-20T08:12:56.192Z,98138.31
2018-12-20T08:15:28.427Z,98144.16
2018-12-20T08:18:00.643Z,98136.44
2018-12-20T08:20:32.876Z,98146.95
2018-12-20T08:23:05.120Z,98141.52
2018-12-20T08:25:37.360Z,98151.52
2018-12-20T08:28:09.575Z,98151.52
2018-12-20T08:30:41.859Z,98153.30
2018-12-20T08:33:14.060Z,98160.53
2018-12-20T08:35:47.390Z,98165.47
2018-12-20T08:38:19.664Z,98165.09
2018-12-20T08:40:51.923Z,98173.44
2018-12-20T08:43:24.232Z,98173.19
2018-12-20T08:45:56.531Z,98181.42
2018-12-20T08:48:28.787Z,98182.69
2018-12-20T08:51:01.169Z,98186.23
2018-12-20T08:53:33.460Z,98187.24
2018-12-20T08:56:05.709Z,98187.73
2018-12-20T08:58:37.945Z,98188.89
2018-12-20T09:01:10.199Z,98191.17
2018-12-20T09:03:42.480Z,98194.84
2018-12-20T09:06:14.723Z,98194.08
2018-12-20T09:08:47.086Z,98202.19
2018-12-20T09:11:19.320Z,98203.98
2018-12-20T09:13:51.600Z,98204.97
2018-12-20T09:16:23.836Z,98202.95
2018-12-20T09:18:56.104Z,98208.28
2018-12-20T09:21:28.337Z,98209.03
2018-12-20T09:24:00.583Z,98213.86
2018-12-20T09:26:32.817Z,98208.77
2018-12-20T09:29:05.086Z,98210.92
2018-12-20T09:31:37.302Z,98213.80
2018-12-20T09:34:09.556Z,98208.72
2018-12-20T09:36:41.790Z,98215.59
2018-12-20T09:39:14.038Z,98215.03
2018-12-20T09:41:46.280Z,98210.82
2018-12-20T09:44:18.556Z,98208.68
2018-12-20T09:46:53.150Z,98214.73
2018-12-20T09:49:25.422Z,98206.62
2018-12-20T09:51:57.652Z,98206.80
2018-12-20T09:54:29.934Z,98199.14
2018-12-20T09:57:02.202Z,98198.81
2018-12-20T09:59:34.502Z,98193.55
2018-12-20T10:02:06.713Z,98199.81
2018-12-20T10:04:39.107Z,98190.23
2018-12-20T10:07:11.348Z,98188.28
2018-12-20T10:09:43.635Z,98185.82
2018-12-20T10:12:15.917Z,98179.01
2018-12-20T10:14:48.179Z,98183.31
2018-12-20T10:17:20.439Z,98183.22
2018-12-20T10:19:52.704Z,98176.69
2018-12-20T10:22:24.961Z,98172.21
2018-12-20T10:24:57.259Z,98170.06
2018-12-20T10:27:31.545Z,98163.31
2018-12-20T10:30:04.186Z,98156.68
2018-12-20T10:32:36.417Z,98156.28
2018-12-20T10:35:08.695Z,98148.02
2018-12-20T10:37:40.917Z,98147.50
2018-12-20T10:40:13.187Z,98153.86
2018-12-20T10:42:45.444Z,98153.47
2018-12-20T10:45:17.737Z,98153.34
2018-12-20T10:47:49.984Z,98151.91
2018-12-20T10:50:22.326Z,98154.41
2018-12-20T10:52:54.620Z,98158.48
2018-12-20T10:55:26.888Z,98147.25
2018-12-20T10:57:59.168Z,98145.45
2018-12-20T11:00:36.024Z,98146.67
2018-12-20T11:03:13.959Z,98143.95
2018-12-20T11:05:51.799Z,98137.62
2018-12-20T11:08:24.131Z,98140.99
2018-12-20T11:11:05.254Z,98130.75
2018-12-20T11:13:37.645Z,98128.77
2018-12-20T11:16:09.928Z,98129.23
2018-12-20T11:18:42.213Z,98129.50
2018-12-20T11:21:14.450Z,98129.14
2018-12-20T11:23:46.727Z,98127.34
2018-12-20T11:26:18.940Z,98128.48
2018-12-20T11:28:51.216Z,98128.88
2018-12-20T11:31:23.448Z,98131.84
2018-12-20T11:33:55.743Z,98130.30
2018-12-20T11:36:27.976Z,98126.82
2018-12-20T11:39:08.207Z,98129.45
2018-12-20T11:41:34.621Z,98128.55
2018-12-20T11:44:06.872Z,98129.02
2018-12-20T11:46:39.135Z,98126.00
2018-12-20T11:49:11.477Z,98130.27
2018-12-20T11:51:43.849Z,98121.48
2018-12-20T11:54:16.224Z,98121.88
2018-12-20T11:56:48.490Z,98119.06
2018-12-20T11:59:20.790Z,98123.64
2018-12-20T12:01:53.091Z,98111.88
2018-12-20T12:04:25.414Z,98122.50
2018-12-20T12:06:57.653Z,98114.64
2018-12-20T12:09:29.898Z,98114.34
2018-12-20T12:12:02.236Z,98108.31
2018-12-20T12:14:34.476Z,98101.56
2018-12-20T12:17:06.753Z,98102.89
2018-12-20T12:19:39.032Z,98104.82
2018-12-20T12:22:11.301Z,98109.03
2018-12-20T12:24:43.563Z,98106.27
2018-12-20T12:27:15.879Z,98105.84
2018-12-20T12:29:48.184Z,98103.86
2018-12-20T12:32:20.456Z,98104.56
2018-12-20T12:34:52.732Z,98106.02
2018-12-20T12:37:25.015Z,98104.92
2018-12-20T12:39:57.344Z,98106.45
2018-12-20T12:42:29.565Z,98102.03
2018-12-20T12:45:01.862Z,98093.66
2018-12-20T12:47:39.803Z,98095.63
2018-12-20T12:50:12.215Z,98106.46
2018-12-20T12:52:44.480Z,98105.84
2018-12-20T12:55:16.754Z,98102.30
2018-12-20T12:57:49.016Z,98097.39
2018-12-20T13:00:22.218Z,98100.10
2018-12-20T13:02:54.576Z,98103.40
2018-12-20T13:05:26.815Z,98104.67
2018-12-20T13:07:59.133Z,98107.51
2018-12-20T13:10:31.401Z,98107.25
2018-12-20T13:13:03.691Z,98105.02
2018-12-20T13:15:35.973Z,98112.64
2018-12-20T13:18:13.809Z,98117.33
2018-12-20T13:20:42.725Z,98110.09
2018-12-20T13:23:15.029Z,98121.93
2018-12-20T13:25:47.259Z,98115.05
2018-12-20T13:28:19.539Z,98117.20
2018-12-20T13:30:51.805Z,98114.79
2018-12-20T13:33:24.206Z,98116.77
2018-12-20T13:35:56.472Z,98115.80
2018-12-20T13:38:28.752Z,98114.35
2018-12-20T13:41:01.000Z,98117.21
2018-12-20T13:43:33.319Z,98120.84
2018-12-20T13:46:05.691Z,98117.86
2018-12-20T13:48:37.977Z,98111.88
2018-12-20T13:51:10.257Z,98117.98
2018-12-20T13:53:42.540Z,98114.17
2018-12-20T13:56:14.965Z,98117.55
2018-12-20T13:58:47.256Z,98120.59
2018-12-20T14:01:19.520Z,98117.67
2018-12-20T14:03:51.800Z,98113.67
2018-12-20T14:06:24.091Z,98120.16
2018-12-20T14:08:56.385Z,98126.73
2018-12-20T14:11:28.677Z,98120.23
2018-12-20T14:14:00.973Z,98126.54
2018-12-20T14:16:33.232Z,98135.14
2018-12-20T14:19:05.633Z,98131.88
2018-12-20T14:21:37.885Z,98134.21
2018-12-20T14:24:10.148Z,98132.90
2018-12-20T14:26:42.441Z,98136.98
2018-12-20T14:29:14.713Z,98137.86
2018-12-20T14:31:46.932Z,98139.20
2018-12-20T14:34:19.239Z,98146.98
2018-12-20T14:36:51.500Z,98150.34
2018-12-20T14:39:23.767Z,98150.88
2018-12-20T14:41:56.012Z,98149.43
2018-12-20T14:44:28.308Z,98151.19
2018-12-20T14:47:00.652Z,98153.91
2018-12-20T14:49:32.959Z,98153.27
2018-12-20T14:52:05.263Z,98161.97
2018-12-20T14:54:37.552Z,98154.33
2018-12-20T14:57:09.836Z,98156.48
2018-12-20T14:59:42.097Z,98149.67
2018-12-20T15:02:14.424Z,98156.87
2018-12-20T15:04:46.726Z,98151.56
2018-12-20T15:07:18.999Z,98159.85
2018-12-20T15:09:51.303Z,98159.98
2018-12-20T15:12:23.609Z,98164.69
2018-12-20T15:15:01.809Z,98164.42
2018-12-20T15:17:34.077Z,98168.81
2018-12-20T15:20:07.960Z,98162.64
2018-12-20T15:22:40.252Z,98166.24
2018-12-20T15:25:12.576Z,98173.70
2018-12-20T15:27:44.987Z,98157.95
2018-12-20T15:30:17.287Z,98167.30
2018-12-20T15:32:50.224Z,98164.92
2018-12-20T15:35:22.539Z,98162.30
2018-12-20T15:37:54.869Z,98167.03
2018-12-20T15:40:27.176Z,98169.01
2018-12-20T15:42:59.453Z,98168.79
2018-12-20T15:45:31.843Z,98170.67
2018-12-20T15:48:04.212Z,98170.55
2018-12-20T15:50:36.527Z,98169.72
2018-12-20T15:53:08.864Z,98179.84
2018-12-20T15:55:41.099Z,98179.80
2018-12-20T15:58:13.448Z,98183.88
2018-12-20T16:00:45.724Z,98187.66
2018-12-20T16:03:18.103Z,98183.00
2018-12-20T16:05:50.394Z,98182.39
2018-12-20T16:08:22.725Z,98180.94
2018-12-20T16:10:55.044Z,98190.02
2018-12-20T16:13:27.377Z,98191.64
2018-12-20T16:15:59.673Z,98195.37
2018-12-20T16:18:32.013Z,98204.48
2018-12-20T16:21:04.336Z,98190.49
2018-12-20T16:23:36.600Z,98194.78
2018-12-20T16:26:08.924Z,98192.41
2018-12-20T16:28:41.180Z,98193.99
2018-12-20T16:31:13.465Z,98194.97
2018-12-20T16:33:45.716Z,98188.06
2018-12-20T16:36:17.960Z,98195.56
2018-12-20T16:38:50.233Z,98198.16
2018-12-20T16:41:22.518Z,98196.02
2018-12-20T16:43:54.830Z,98204.23
2018-12-20T16:46:27.135Z,98198.98
2018-12-20T16:48:59.548Z,98214.97
2018-12-20T16:51:31.933Z,98210.80
2018-12-20T16:54:04.385Z,98208.67
2018-12-20T16:56:36.816Z,98209.59
2018-12-20T16:59:09.126Z,98212.97
2018-12-20T17:01:41.411Z,98213.72
2018-12-20T17:04:13.659Z,98217.86
2018-12-20T17:06:45.931Z,98225.13
2018-12-20T17:09:18.208Z,98232.37
2018-12-20T17:11:50.529Z,98238.93
2018-12-20T17:14:22.896Z,98236.84
2018-12-20T17:16:55.220Z,98240.75
2018-12-20T17:19:27.489Z,98235.93
2018-12-20T17:21:59.836Z,98238.47
2018-12-20T17:24:32.085Z,98239.45
2018-12-20T17:27:04.363Z,98247.08
2018-12-20T17:29:36.698Z,98245.61
2018-12-20T17:32:08.989Z,98241.05
2018-12-20T17:34:41.258Z,98242.71
2018-12-20T17:37:13.551Z,98249.95
2018-12-20T17:39:45.833Z,98254.55
2018-12-20T17:42:18.142Z,98252.98
2018-12-20T17:44:50.440Z,98248.58
2018-12-20T17:47:22.884Z,98253.66
2018-12-20T17:49:55.241Z,98255.69
2018-12-20T17:52:27.581Z,98256.99
2018-12-20T17:54:59.844Z,98255.23
2018-12-20T17:57:32.139Z,98257.16
2018-12-20T18:00:09.061Z,98253.98
2018-12-20T18:02:41.354Z,98261.23
2018-12-20T18:05:13.648Z,98256.77
2018-12-20T18:07:45.955Z,98260.31
2018-12-20T18:10:18.259Z,98263.84
2018-12-20T18:12:50.588Z,98263.45
2018-12-20T18:15:22.901Z,98274.53
2018-12-20T18:17:55.276Z,98272.45
2018-12-20T18:20:27.573Z,98274.17
2018-12-20T18:23:00.016Z,98282.91
2018-12-20T18:25:32.382Z,98278.67
2018-12-20T18:28:04.725Z,98283.95
2018-12-20T18:30:37.053Z,98281.50
2018-12-20T18:33:09.478Z,98281.31
2018-12-20T18:35:41.857Z,98283.47
2018-12-20T18:38:14.204Z,98284.16
2018-12-20T18:40:46.469Z,98290.25
2018-12-20T18:43:18.740Z,98287.73
2018-12-20T18:45:51.149Z,98283.72
2018-12-20T18:48:23.475Z,98281.61
2018-12-20T18:50:55.794Z,98283.34
2018-12-20T18:53:28.129Z,98280.59
2018-12-20T18:56:00.448Z,98289.63
2018-12-20T18:58:32.749Z,98293.64
2018-12-20T19:01:05.145Z,98291.72
2018-12-20T19:03:37.434Z,98296.81
2018-12-20T19:06:09.747Z,98296.09
2018-12-20T19:08:42.152Z,98295.34
2018-12-20T19:11:14.537Z,98301.53
2018-12-20T19:13:46.888Z,98295.83
2018-12-20T19:16:19.275Z,98305.84
2018-12-20T19:18:51.706Z,98302.94
2018-12-20T19:21:24.063Z,98308.52
2018-12-20T19:23:56.338Z,98310.89
2018-12-20T19:26:28.713Z,98311.88
2018-12-20T19:29:01.021Z,98308.61
2018-12-20T19:31:33.364Z,98309.95
2018-12-20T19:34:05.704Z,98306.40
2018-12-20T19:36:38.037Z,98310.41
2018-12-20T19:39:13.330Z,98315.98
2018-12-20T19:41:45.692Z,98315.98
2018-12-20T19:44:18.042Z,98312.95
2018-12-20T19:46:50.392Z,98313.86
2018-12-20T19:49:22.760Z,98315.53
2018-12-20T19:51:55.139Z,98310.50
2018-12-20T19:54:27.474Z,98313.05
2018-12-20T19:56:59.788Z,98314.39
2018-12-20T19:59:38.623Z,98312.69
2018-12-20T20:02:06.426Z,98312.66
2018-12-20T20:04:38.781Z,98310.64
2018-12-20T20:07:11.141Z,98306.17
2018-12-20T20:09:43.423Z,98307.93
2018-12-20T20:12:15.815Z,98310.83
2018-12-20T20:14:48.191Z,98305.09
2018-12-20T20:17:20.869Z,98302.16
2018-12-20T20:19:59.672Z,98311.87
2018-12-20T20:22:27.622Z,98309.84
2018-12-20T20:25:00.005Z,98307.21
2018-12-20T20:27:32.316Z,98304.38
2018-12-20T20:30:07.118Z,98309.59
2018-12-20T20:32:39.528Z,98307.77
2018-12-20T20:35:11.907Z,98308.15
2018-12-20T20:37:44.298Z,98309.09
2018-12-20T20:40:16.660Z,98307.27
2018-12-20T20:42:49.037Z,98305.95
2018-12-20T20:45:21.378Z,98305.51
2018-12-20T20:47:53.738Z,98313.18
2018-12-20T20:50:26.101Z,98312.84
2018-12-20T20:52:58.991Z,98315.91
2018-12-20T20:55:31.325Z,98315.80
2018-12-20T20:58:03.597Z,98309.22
2018-12-20T21:00:35.967Z,98317.41
2018-12-20T21:03:08.246Z,98314.75
2018-12-20T21:05:40.566Z,98319.99
2018-12-20T21:08:12.906Z,98319.70
2018-12-20T21:10:45.323Z,98320.68
2018-12-20T21:13:17.619Z,98323.95
2018-12-20T21:15:49.951Z,98327.83
2018-12-20T21:18:23.227Z,98321.53
2018-12-20T21:20:55.684Z,98328.25
2018-12-20T21:23:27.955Z,98320.88
2018-12-20T21:26:00.237Z,98324.20
2018-12-20T21:28:32.689Z,98329.63
2018-12-20T21:31:05.020Z,98328.19
2018-12-20T21:33:37.297Z,98328.05
2018-12-20T21:36:09.647Z,98329.39
2018-12-20T21:38:41.891Z,98327.20
2018-12-20T21:41:14.222Z,98324.99
2018-12-20T21:43:46.543Z,98330.80
2018-12-20T21:46:18.874Z,98329.72
2018-12-20T21:48:51.169Z,98335.23
2018-12-20T21:51:23.458Z,98336.77
2018-12-20T21:53:55.725Z,98332.84
2018-12-20T21:56:29.072Z,98334.55
2018-12-20T21:59:01.323Z,98336.38
2018-12-20T22:01:33.636Z,98330.01
2018-12-20T22:04:05.948Z,98332.53
2018-12-20T22:06:38.283Z,98335.07
2018-12-20T22:09:10.551Z,98330.38
2018-12-20T22:11:42.968Z,98336.67
2018-12-20T22:14:15.367Z,98331.67
2018-12-20T22:16:48.668Z,98338.47
2018-12-20T22:19:21.032Z,98339.20
2018-12-20T22:21:53.353Z,98335.41
2018-12-20T22:24:26.560Z,98340.10
2018-12-20T22:26:58.998Z,98331.95
2018-12-20T22:29:31.297Z,98331.16
2018-12-20T22:32:03.631Z,98332.97
2018-12-20T22:34:35.944Z,98324.27
2018-12-20T22:37:08.213Z,98328.78
2018-12-20T22:39:40.513Z,98333.86
2018-12-20T22:42:12.803Z,98332.30
2018-12-20T22:44:45.144Z,98334.92
2018-12-20T22:47:17.444Z,98337.98
2018-12-20T22:49:49.738Z,98334.56
2018-12-20T22:52:22.008Z,98327.42
2018-12-20T22:54:54.310Z,98328.02
2018-12-20T22:57:26.603Z,98329.66
2018-12-20T22:59:58.861Z,98327.71
2018-12-20T23:02:31.125Z,98327.71
2018-12-20T23:05:03.450Z,98328.41
2018-12-20T23:07:35.731Z,98326.23
2018-12-20T23:10:08.121Z,98327.06
2018-12-20T23:12:40.388Z,98320.91
2018-12-20T23:15:12.726Z,98319.91
2018-12-20T23:17:45.021Z,98314.01
2018-12-20T23:20:17.329Z,98309.59
2018-12-20T23:22:49.595Z,98313.66
2018-12-20T23:25:21.957Z,98317.43
2018-12-20T23:27:54.274Z,98318.94
2018-12-20T23:30:26.525Z,98320.16
2018-12-20T23:32:58.758Z,98327.53
2018-12-20T23:35:31.060Z,98323.50
2018-12-20T23:38:03.423Z,98325.55
2018-12-20T23:40:35.709Z,98327.81
2018-12-20T23:43:07.974Z,98332.15
2018-12-20T23:45:40.291Z,98322.99
2018-12-20T23:48:12.567Z,98318.63
2018-12-20T23:50:44.812Z,98325.09
2018-12-20T23:53:17.086Z,98320.70
2018-12-20T23:55:49.316Z,98320.86
2018-12-20T23:58:21.611Z,98322.00
